Time;durP1;ratioP1;P1;durP2;ratioP2;P2;SDS_P1;SDS_P2;PMS_P1;PMS_P2;Temp;Humidity;BMP_temperature;BMP_pressure;BME280_temperature;BME280_humidity;BME280_pressure;Samples;Min_cycle;Max_cycle;Signal;HPM_P1;HPM_P2
2024/03/17 00:01:49;;;;;;;18.53;10.87;;;8.10;70.20;;;;;;4465172;27;658200;-72
2024/03/17 00:04:35;;;;;;;21.23;13.87;;;8.10;48.40;;;;;;4498128;27;657536;-73
2024/03/17 00:07:23;;;;;;;11.07;7.47;;;8.10;99.90;;;;;;4469434;27;657282;-71
2024/03/17 00:10:10;;;;;;;15.77;9.53;;;7.80;1.00;;;;;;4500544;27;657231;-70
2024/03/17 00:12:58;;;;;;;13.13;7.00;;;7.60;99.90;;;;;;4484223;27;655752;-72
2024/03/17 00:15:46;;;;;;;25.17;13.17;;;7.60;15.20;;;;;;4498222;27;656842;-71
2024/03/17 00:18:33;;;;;;;15.97;7.87;;;7.30;1.00;;;;;;4467951;27;658127;-71
2024/03/17 00:21:19;;;;;;;8.43;5.10;;;7.20;1.00;;;;;;4486410;27;655860;-71
2024/03/17 00:24:08;;;;;;;13.37;8.47;;;7.00;99.90;;;;;;4491452;27;655195;-70
2024/03/17 00:26:54;;;;;;;18.50;11.63;;;6.90;1.00;;;;;;4462548;27;657294;-70
2024/03/17 00:29:41;;;;;;;13.20;6.97;;;6.70;1.00;;;;;;4489363;27;656418;-70
2024/03/17 00:32:29;;;;;;;17.17;9.70;;;6.70;99.90;;;;;;4474686;27;655788;-71
2024/03/17 00:35:20;;;;;;;17.60;8.10;;;6.60;1.00;;;;;;4501016;27;656697;-70
2024/03/17 00:38:10;;;;;;;34.33;17.90;;;6.60;1.00;;;;;;4464265;27;655944;-71
2024/03/17 00:40:57;;;;;;;38.83;19.07;;;6.40;1.00;;;;;;4481753;27;656759;-71
2024/03/17 00:43:44;;;;;;;39.43;19.90;;;6.40;43.60;;;;;;4500998;27;658148;-70
2024/03/17 00:46:31;;;;;;;18.37;7.70;;;6.40;1.00;;;;;;4501591;27;657902;-70
2024/03/17 00:49:18;;;;;;;43.80;19.50;;;6.40;99.90;;;;;;4483998;27;656341;-71
2024/03/17 00:52:06;;;;;;;40.00;18.77;;;6.40;99.90;;;;;;4504962;27;658482;-71
2024/03/17 00:54:52;;;;;;;27.73;14.80;;;6.30;99.90;;;;;;4481705;27;657926;-71
2024/03/17 00:57:39;;;;;;;23.10;13.47;;;6.30;99.90;;;;;;4503658;27;657636;-70
2024/03/17 01:00:25;;;;;;;6.87;3.40;;;6.30;99.90;;;;;;4487491;27;657847;-70
2024/03/17 01:03:12;;;;;;;8.60;4.40;;;6.20;1.00;;;;;;4483145;27;655883;-71
2024/03/17 01:06:02;;;;;;;7.83;4.60;;;6.00;10.00;;;;;;4491433;27;655416;-70
2024/03/17 01:08:51;;;;;;;8.70;3.87;;;5.80;99.90;;;;;;4475741;27;656222;-70
2024/03/17 01:11:38;;;;;;;10.48;4.13;;;5.60;1.00;;;;;;4486364;27;655744;-71
2024/03/17 01:14:26;;;;;;;12.43;3.73;;;5.50;99.90;;;;;;4493094;27;656041;-70
2024/03/17 01:17:13;;;;;;;6.57;2.67;;;5.50;1.00;;;;;;4480538;27;656539;-71
2024/03/17 01:19:59;;;;;;;10.10;3.53;;;5.30;1.00;;;;;;4497242;27;654753;-71
2024/03/17 01:22:48;;;;;;;6.73;2.97;;;5.20;1.00;;;;;;4491771;27;656116;-70
2024/03/17 01:25:36;;;;;;;12.77;3.70;;;5.00;99.90;;;;;;4468737;27;654943;-70
2024/03/17 01:28:24;;;;;;;11.80;2.87;;;4.90;99.90;;;;;;4486282;27;657514;-70
2024/03/17 01:31:11;;;;;;;6.27;2.37;;;5.00;1.00;;;;;;4506131;27;656847;-71
2024/03/17 01:33:58;;;;;;;6.23;2.53;;;4.80;1.00;;;;;;4477227;27;654986;-71
2024/03/17 01:36:45;;;;;;;11.63;3.20;;;4.80;99.90;;;;;;4496772;27;655125;-71
2024/03/17 01:39:33;;;;;;;13.70;3.10;;;4.80;1.00;;;;;;4504911;27;656633;-71
2024/03/17 01:42:19;;;;;;;1.93;1.13;;;4.80;1.00;;;;;;4473835;27;655753;-70
2024/03/17 01:45:26;;;;;;;11.80;4.10;;;4.80;99.90;;;;;;4497776;27;654105;-71
2024/03/17 01:48:14;;;;;;;2.20;1.43;;;4.70;1.00;;;;;;4471605;27;657158;-70
2024/03/17 01:51:01;;;;;;;17.10;4.47;;;4.70;1.00;;;;;;4493656;27;655494;-70
2024/03/17 01:53:48;;;;;;;13.20;3.10;;;4.70;99.90;;;;;;4477828;27;655901;-71
2024/03/17 01:56:36;;;;;;;8.73;2.90;;;4.70;85.70;;;;;;4490192;27;658095;-71
2024/03/17 01:59:22;;;;;;;11.77;3.83;;;4.70;99.90;;;;;;4472507;27;655394;-71
2024/03/17 02:02:10;;;;;;;9.37;3.87;;;4.60;99.90;;;;;;4498668;27;657434;-71
2024/03/17 02:04:56;;;;;;;15.87;4.63;;;4.60;99.90;;;;;;4490468;27;655590;-71
2024/03/17 02:07:44;;;;;;;14.43;3.90;;;4.60;99.90;;;;;;4494435;27;656377;-71
2024/03/17 02:10:31;;;;;;;11.97;4.20;;;4.60;22.20;;;;;;4490750;27;656769;-71
2024/03/17 02:13:18;;;;;;;13.97;6.13;;;4.60;99.90;;;;;;4470750;27;656313;-71
2024/03/17 02:16:06;;;;;;;15.03;8.00;;;4.60;1.00;;;;;;4505142;27;656954;-71
2024/03/17 02:18:55;;;;;;;34.60;18.47;;;4.60;99.90;;;;;;4473451;27;655596;-71
2024/03/17 02:21:41;;;;;;;34.47;19.43;;;4.50;99.90;;;;;;4467683;27;657332;-71
2024/03/17 02:24:30;;;;;;;36.60;22.60;;;4.50;99.90;;;;;;4490804;27;657834;-71
2024/03/17 02:27:16;;;;;;;23.98;12.43;;;4.50;99.90;;;;;;4487465;27;657724;-71
2024/03/17 02:30:06;;;;;;;22.77;8.60;;;4.60;99.90;;;;;;4496302;27;658011;-71
2024/03/17 02:32:53;;;;;;;19.73;6.53;;;4.50;1.00;;;;;;4474443;27;656943;-71
2024/03/17 02:35:40;;;;;;;20.90;5.80;;;4.50;1.00;;;;;;4498358;27;656377;-71
2024/03/17 02:41:34;;;;;;;16.40;5.10;;;4.50;99.90;;;;;;4465549;27;657490;-71
2024/03/17 02:44:21;;;;;;;10.00;3.77;;;4.50;99.90;;;;;;4490595;27;656921;-70
2024/03/17 02:47:09;;;;;;;17.17;5.00;;;4.50;99.90;;;;;;4481107;27;657087;-71
2024/03/17 02:49:56;;;;;;;14.97;5.57;;;4.60;99.90;;;;;;4497639;27;656712;-71
2024/03/17 02:52:44;;;;;;;20.57;7.70;;;4.50;99.90;;;;;;4478511;27;656866;-71
2024/03/17 02:55:31;;;;;;;21.87;9.17;;;4.50;1.00;;;;;;4488054;27;656958;-71
2024/03/17 02:58:19;;;;;;;24.73;10.53;;;4.50;1.00;;;;;;4477843;27;655572;-71
2024/03/17 03:01:07;;;;;;;26.60;11.83;;;4.50;1.00;;;;;;4494687;27;657180;-71
2024/03/17 03:03:54;;;;;;;23.67;9.90;;;4.40;1.00;;;;;;4481625;27;656734;-71
2024/03/17 03:06:41;;;;;;;23.15;11.05;;;4.40;1.00;;;;;;4488668;27;656009;-70
2024/03/17 03:09:32;;;;;;;24.80;11.70;;;4.40;99.90;;;;;;4474832;27;656680;-71
2024/03/17 03:12:19;;;;;;;31.40;10.93;;;4.40;1.00;;;;;;4467208;27;658108;-71
2024/03/17 03:15:08;;;;;;;23.60;11.53;;;4.40;1.00;;;;;;4489587;27;656346;-71
2024/03/17 03:17:55;;;;;;;22.00;7.77;;;4.40;1.00;;;;;;4476897;27;657181;-70
2024/03/17 03:20:43;;;;;;;24.30;11.30;;;4.40;81.40;;;;;;4477705;27;656437;-71
2024/03/17 03:23:31;;;;;;;23.50;10.03;;;4.40;45.40;;;;;;4503949;27;657957;-71
2024/03/17 03:26:18;;;;;;;15.53;8.23;;;4.50;3.60;;;;;;4477632;27;657781;-71
2024/03/17 03:29:05;;;;;;;28.47;11.70;;;4.40;99.90;;;;;;4505147;27;655958;-71
2024/03/17 03:31:54;;;;;;;23.10;10.83;;;4.40;1.00;;;;;;4466007;27;657955;-71
2024/03/17 03:34:41;;;;;;;20.85;9.27;;;4.40;99.90;;;;;;4486690;27;656917;-70
2024/03/17 03:37:29;;;;;;;11.70;3.80;;;4.40;39.70;;;;;;4472531;27;656945;-70
2024/03/17 03:40:17;;;;;;;22.00;8.77;;;4.40;1.00;;;;;;4499832;27;656840;-71
2024/03/17 03:43:04;;;;;;;21.23;8.47;;;4.40;99.90;;;;;;4468516;27;656031;-71
2024/03/17 03:45:51;;;;;;;16.17;7.90;;;4.40;99.90;;;;;;4491394;27;657060;-70
2024/03/17 03:48:40;;;;;;;12.87;6.03;;;4.40;99.90;;;;;;4475408;27;656710;-71
2024/03/17 03:51:27;;;;;;;20.77;8.00;;;4.40;99.90;;;;;;4492583;27;657017;-71
2024/03/17 03:54:15;;;;;;;12.87;6.40;;;4.40;1.00;;;;;;4497494;27;656483;-71
2024/03/17 03:57:02;;;;;;;22.37;7.00;;;4.50;1.00;;;;;;4487861;27;655828;-71
2024/03/17 03:59:49;;;;;;;14.57;7.47;;;4.40;99.90;;;;;;4469943;27;656617;-71
2024/03/17 04:02:37;;;;;;;18.48;7.30;;;4.30;1.00;;;;;;4498440;27;656916;-71
2024/03/17 04:05:26;;;;;;;19.90;7.47;;;4.40;1.00;;;;;;4468715;27;656154;-71
2024/03/17 04:08:13;;;;;;;14.20;6.60;;;4.30;1.00;;;;;;4468729;27;655733;-71
2024/03/17 04:11:01;;;;;;;14.70;6.47;;;4.20;99.90;;;;;;4506342;27;656327;-71
2024/03/17 04:13:48;;;;;;;24.33;6.50;;;4.10;1.00;;;;;;4473144;27;657167;-71
2024/03/17 04:16:36;;;;;;;6.17;1.43;;;4.00;99.90;;;;;;4506028;27;655768;-71
2024/03/17 04:19:23;;;;;;;8.87;3.33;;;4.00;99.90;;;;;;4477670;27;656204;-71
2024/03/17 04:22:11;;;;;;;11.43;4.23;;;4.00;1.00;;;;;;4496954;27;656719;-71
2024/03/17 04:24:59;;;;;;;17.13;4.47;;;3.90;1.00;;;;;;4466520;27;656221;-71
2024/03/17 04:27:46;;;;;;;12.43;4.03;;;3.80;1.00;;;;;;4487439;27;656157;-71
2024/03/17 04:30:33;;;;;;;13.67;3.90;;;3.80;1.00;;;;;;4468297;27;655151;-70
2024/03/17 04:33:21;;;;;;;17.43;3.93;;;3.80;1.00;;;;;;4497589;27;655710;-70
2024/03/17 04:36:08;;;;;;;23.63;4.83;;;3.70;1.00;;;;;;4472801;27;655891;-71
2024/03/17 04:38:58;;;;;;;15.65;4.22;;;3.60;1.00;;;;;;4501860;27;656278;-70
2024/03/17 04:41:45;;;;;;;13.40;4.23;;;3.50;1.00;;;;;;4471243;27;655908;-71
2024/03/17 04:44:32;;;;;;;9.48;2.72;;;3.40;99.90;;;;;;4466534;27;655095;-72
2024/03/17 04:47:20;;;;;;;8.47;2.80;;;3.40;1.00;;;;;;4502102;27;656021;-71
2024/03/17 04:50:08;;;;;;;6.40;2.50;;;3.20;1.00;;;;;;4498543;27;655326;-73
2024/03/17 04:52:55;;;;;;;11.80;3.27;;;3.10;1.00;;;;;;4507553;27;654640;-71
2024/03/17 04:55:44;;;;;;;10.80;2.60;;;3.10;99.90;;;;;;4479442;27;655994;-71
2024/03/17 04:58:31;;;;;;;10.37;2.90;;;3.00;99.90;;;;;;4491883;27;656353;-70
2024/03/17 05:01:18;;;;;;;16.13;3.20;;;2.90;99.90;;;;;;4476268;27;656896;-71
2024/03/17 05:04:06;;;;;;;11.30;2.67;;;2.90;99.90;;;;;;4495005;27;657826;-71
2024/03/17 05:06:53;;;;;;;8.97;2.70;;;2.80;99.90;;;;;;4474686;27;656404;-70
2024/03/17 05:09:40;;;;;;;12.47;2.30;;;2.80;99.90;;;;;;4496333;27;656476;-71
2024/03/17 05:12:29;;;;;;;13.60;3.27;;;2.80;1.00;;;;;;4469762;27;656436;-70
2024/03/17 05:15:16;;;;;;;9.47;2.80;;;2.70;1.00;;;;;;4506324;27;655655;-70
2024/03/17 05:18:03;;;;;;;9.80;2.70;;;2.60;99.90;;;;;;4480779;27;655012;-70
2024/03/17 05:20:59;;;;;;;13.80;2.97;;;2.60;54.10;;;;;;4498050;27;655853;-71
2024/03/17 05:23:46;;;;;;;11.57;3.40;;;2.50;99.70;;;;;;4462102;27;657115;-70
2024/03/17 05:26:33;;;;;;;12.17;2.40;;;2.50;1.00;;;;;;4466383;27;656767;-70
2024/03/17 05:29:22;;;;;;;13.27;3.30;;;2.50;1.00;;;;;;4489675;27;655846;-70
2024/03/17 05:32:09;;;;;;;12.93;3.10;;;2.50;1.00;;;;;;4472593;27;657131;-71
2024/03/17 05:34:57;;;;;;;15.40;3.20;;;2.50;1.00;;;;;;4507066;27;655350;-70
2024/03/17 05:37:45;;;;;;;17.23;3.00;;;2.60;99.90;;;;;;4466612;27;656175;-70
2024/03/17 05:40:32;;;;;;;10.17;2.37;;;2.70;99.90;;;;;;4487216;27;656902;-71
2024/03/17 05:43:20;;;;;;;14.17;2.93;;;2.60;99.90;;;;;;4493065;27;657043;-70
2024/03/17 05:46:10;;;;;;;7.10;2.10;;;2.60;87.50;;;;;;4475460;27;657374;-71
2024/03/17 05:48:57;;;;;;;15.23;2.85;;;2.70;1.00;;;;;;4476412;27;655782;-70
2024/03/17 05:51:45;;;;;;;10.77;2.13;;;2.70;1.00;;;;;;4492005;27;655923;-70
2024/03/17 05:54:32;;;;;;;12.73;2.37;;;2.70;1.00;;;;;;4490687;27;655863;-71
2024/03/17 05:57:19;;;;;;;10.70;2.20;;;2.80;1.00;;;;;;4474968;27;656334;-71
2024/03/17 06:00:07;;;;;;;12.80;3.07;;;2.80;22.40;;;;;;4508979;27;655849;-70
2024/03/17 06:02:56;;;;;;;2.87;1.43;;;2.80;1.00;;;;;;4481390;27;656763;-71
2024/03/17 06:05:44;;;;;;;12.93;2.67;;;2.90;95.70;;;;;;4484106;27;655064;-71
2024/03/17 06:08:31;;;;;;;16.93;2.80;;;2.90;62.30;;;;;;4501953;27;656991;-71
2024/03/17 06:11:18;;;;;;;8.40;2.67;;;3.00;99.90;;;;;;4486212;27;658462;-71
2024/03/17 06:14:09;;;;;;;13.33;3.50;;;3.10;1.00;;;;;;4508946;27;656360;-71
2024/03/17 06:16:56;;;;;;;13.30;5.50;;;3.10;99.90;;;;;;4481703;27;655869;-70
2024/03/17 06:19:45;;;;;;;14.57;5.03;;;3.20;1.00;;;;;;4485556;27;656673;-70
2024/03/17 06:22:33;;;;;;;15.83;7.07;;;3.40;99.90;;;;;;4476148;27;655647;-70
2024/03/17 06:25:20;;;;;;;20.73;8.63;;;3.40;3.00;;;;;;4499869;27;657194;-71
2024/03/17 06:28:07;;;;;;;23.30;9.50;;;3.50;99.90;;;;;;4490253;27;655731;-71
2024/03/17 06:30:59;;;;;;;27.80;11.77;;;3.50;99.90;;;;;;4504828;27;657975;-71
2024/03/17 06:33:46;;;;;;;24.10;9.27;;;3.50;69.20;;;;;;4477204;27;657621;-70
2024/03/17 06:36:35;;;;;;;20.73;9.30;;;3.50;1.00;;;;;;4475337;27;657782;-70
2024/03/17 06:39:23;;;;;;;22.92;8.15;;;3.40;70.40;;;;;;4489633;27;655845;-71
2024/03/17 06:42:11;;;;;;;16.35;7.40;;;3.40;99.90;;;;;;4504396;27;657159;-70
2024/03/17 06:44:58;;;;;;;22.03;7.63;;;3.30;99.90;;;;;;4480918;27;656390;-70
2024/03/17 06:47:45;;;;;;;13.68;4.53;;;3.50;1.00;;;;;;4505433;27;656466;-70
2024/03/17 06:50:32;;;;;;;14.73;4.13;;;3.60;1.00;;;;;;4488629;27;655631;-71
2024/03/17 06:53:21;;;;;;;15.40;5.28;;;3.80;1.00;;;;;;4507644;27;655584;-71
2024/03/17 06:56:09;;;;;;;12.25;4.45;;;3.80;99.90;;;;;;4484816;27;655648;-71
2024/03/17 06:58:56;;;;;;;8.67;3.60;;;3.90;99.90;;;;;;4504348;27;656409;-70
2024/03/17 07:01:44;;;;;;;8.33;2.27;;;3.80;99.90;;;;;;4485777;27;656130;-69
2024/03/17 07:04:31;;;;;;;8.70;2.50;;;3.70;99.90;;;;;;4489700;27;655540;-70
2024/03/17 07:07:18;;;;;;;5.07;1.60;;;3.80;1.00;;;;;;4467830;27;655195;-70
2024/03/17 07:10:08;;;;;;;5.10;1.70;;;3.90;99.90;;;;;;4489381;27;654891;-70
2024/03/17 07:12:56;;;;;;;7.90;2.60;;;4.00;99.90;;;;;;4460885;27;655524;-70
2024/03/17 07:15:48;;;;;;;11.77;4.10;;;4.20;99.90;;;;;;4466133;27;656190;-70
2024/03/17 07:18:35;;;;;;;9.87;4.80;;;4.30;99.90;;;;;;4460304;27;657641;-70
2024/03/17 07:21:22;;;;;;;12.70;4.60;;;4.30;99.90;;;;;;4479734;27;655741;-70
2024/03/17 07:24:10;;;;;;;16.03;4.73;;;4.40;99.90;;;;;;4492554;27;657150;-70
2024/03/17 07:26:59;;;;;;;8.90;3.37;;;4.40;99.90;;;;;;4482941;27;657345;-70
2024/03/17 07:29:47;;;;;;;8.20;2.97;;;4.40;99.90;;;;;;4487216;27;656314;-70
2024/03/17 07:32:34;;;;;;;8.90;3.13;;;4.50;99.90;;;;;;4463149;27;656020;-70
2024/03/17 07:35:22;;;;;;;12.70;3.72;;;4.60;1.00;;;;;;4486927;27;655179;-70
2024/03/17 07:38:10;;;;;;;7.93;2.80;;;4.70;99.90;;;;;;4468555;27;655113;-70
2024/03/17 07:40:59;;;;;;;8.57;3.93;;;4.70;1.00;;;;;;4477126;27;656068;-70
2024/03/17 07:43:47;;;;;;;13.23;3.67;;;4.40;1.00;;;;;;4488528;27;655140;-70
2024/03/17 07:46:34;;;;;;;11.90;4.80;;;4.60;99.90;;;;;;4460996;27;655292;-70
2024/03/17 07:49:21;;;;;;;16.92;5.47;;;4.80;1.00;;;;;;4489955;27;655717;-70
2024/03/17 07:52:09;;;;;;;11.63;4.77;;;4.80;99.90;;;;;;4457602;27;655844;-70
2024/03/17 07:54:56;;;;;;;16.60;6.30;;;5.10;99.90;;;;;;4397607;27;656487;-71
2024/03/17 07:57:43;;;;;;;11.67;5.83;;;5.20;1.00;;;;;;4364212;27;657032;-70
2024/03/17 08:00:32;;;;;;;13.33;6.23;;;5.20;99.90;;;;;;4382951;27;656236;-71
2024/03/17 08:03:19;;;;;;;16.07;5.70;;;5.30;1.00;;;;;;4374355;27;657478;-70
2024/03/17 08:06:08;;;;;;;12.07;5.10;;;5.30;99.90;;;;;;4412320;27;655103;-70
2024/03/17 08:08:55;;;;;;;15.80;5.97;;;5.10;99.90;;;;;;4406837;27;656462;-70
2024/03/17 08:11:46;;;;;;;7.00;4.05;;;4.90;1.00;;;;;;4465550;27;656851;-70
2024/03/17 08:14:33;;;;;;;9.77;3.23;;;5.20;1.00;;;;;;4473087;27;654815;-70
2024/03/17 08:17:22;;;;;;;10.90;4.47;;;5.00;1.00;;;;;;4496457;27;654508;-70
2024/03/17 08:20:10;;;;;;;8.33;3.23;;;4.80;1.00;;;;;;4471342;27;655653;-70
2024/03/17 08:22:57;;;;;;;7.97;3.10;;;4.80;1.00;;;;;;4484392;27;654882;-69
2024/03/17 08:25:52;;;;;;;6.10;2.43;;;5.10;1.00;;;;;;4433262;27;654731;-71
2024/03/17 08:28:39;;;;;;;7.73;3.57;;;5.20;1.00;;;;;;4392148;27;655514;-71
2024/03/17 08:31:26;;;;;;;7.70;3.03;;;5.30;1.00;;;;;;4430613;27;654142;-71
2024/03/17 08:34:15;;;;;;;13.70;4.40;;;5.50;1.00;;;;;;4402368;27;655385;-71
2024/03/17 08:37:02;;;;;;;9.90;4.23;;;5.80;99.90;;;;;;4402863;27;655905;-71
2024/03/17 08:39:50;;;;;;;11.27;3.97;;;5.80;99.90;;;;;;4432457;27;656134;-71
2024/03/17 08:42:37;;;;;;;10.90;3.93;;;6.20;99.90;;;;;;4417952;27;656602;-71
2024/03/17 08:45:25;;;;;;;12.23;2.90;;;6.40;99.90;;;;;;4434239;27;657081;-71
2024/03/17 08:48:12;;;;;;;6.60;3.23;;;6.50;99.90;;;;;;4430703;27;656685;-72
2024/03/17 08:51:01;;;;;;;15.83;2.90;;;5.60;1.00;;;;;;4415482;27;655615;-72
2024/03/17 08:53:48;;;;;;;12.57;4.93;;;5.90;1.00;;;;;;4410385;27;655633;-71
2024/03/17 08:56:36;;;;;;;8.67;3.43;;;6.10;1.00;;;;;;4432111;27;655417;-71
2024/03/17 08:59:24;;;;;;;10.83;4.17;;;6.10;99.90;;;;;;4465104;27;654586;-71
2024/03/17 09:02:14;;;;;;;8.87;4.20;;;6.50;1.00;;;;;;4499768;27;657073;-70
2024/03/17 09:05:04;;;;;;;7.20;4.07;;;6.50;99.90;;;;;;4499851;27;654843;-70
2024/03/17 09:07:53;;;;;;;9.63;4.23;;;6.60;99.90;;;;;;4473068;27;655111;-71
2024/03/17 09:10:40;;;;;;;13.00;4.47;;;6.40;99.90;;;;;;4480849;27;655972;-71
2024/03/17 09:13:28;;;;;;;12.40;3.70;;;6.50;61.00;;;;;;4496779;27;656255;-70
2024/03/17 09:16:18;;;;;;;7.47;3.33;;;6.60;99.90;;;;;;4510347;27;656282;-70
2024/03/17 09:19:05;;;;;;;6.80;2.47;;;6.80;1.00;;;;;;4474474;27;655394;-70
2024/03/17 09:21:52;;;;;;;10.67;3.90;;;7.10;9.30;;;;;;4474335;27;654580;-70
2024/03/17 09:24:41;;;;;;;7.67;3.73;;;6.40;59.30;;;;;;4487059;27;656308;-71
2024/03/17 09:27:28;;;;;;;9.60;3.78;;;6.60;99.90;;;;;;4477526;27;655868;-70
2024/03/17 09:30:16;;;;;;;5.43;2.60;;;6.20;99.90;;;;;;4499722;27;656362;-70
2024/03/17 09:33:04;;;;;;;6.67;2.73;;;6.80;99.90;;;;;;4483710;27;656010;-70
2024/03/17 09:35:56;;;;;;;6.13;3.10;;;6.90;99.90;;;;;;4503518;27;656473;-70
2024/03/17 09:38:45;;;;;;;11.43;3.07;;;6.70;1.00;;;;;;4483882;27;655591;-70
2024/03/17 09:41:33;;;;;;;9.13;2.77;;;6.50;1.00;;;;;;4507864;27;655565;-70
2024/03/17 09:44:20;;;;;;;5.17;2.70;;;6.50;1.00;;;;;;4467840;27;655981;-70
2024/03/17 09:47:08;;;;;;;5.97;2.40;;;6.90;1.00;;;;;;4469398;27;654651;-71
2024/03/17 09:49:55;;;;;;;12.57;3.80;;;7.40;1.00;;;;;;4502244;27;655726;-71
2024/03/17 09:52:43;;;;;;;9.40;2.73;;;6.70;1.00;;;;;;4496509;27;656187;-70
2024/03/17 09:55:31;;;;;;;10.03;3.20;;;6.90;1.00;;;;;;4501646;27;655340;-70
2024/03/17 09:58:19;;;;;;;8.93;2.73;;;6.80;1.00;;;;;;4472260;27;655076;-70
2024/03/17 10:01:06;;;;;;;9.83;3.27;;;6.70;1.00;;;;;;4507735;27;654088;-70
2024/03/17 10:03:54;;;;;;;6.53;2.50;;;6.90;1.00;;;;;;4480255;27;654390;-70
2024/03/17 10:06:46;;;;;;;13.53;3.57;;;7.30;1.00;;;;;;4499388;27;654499;-70
2024/03/17 10:09:33;;;;;;;6.87;2.53;;;7.00;1.00;;;;;;4456824;27;656406;-69
2024/03/17 10:12:30;;;;;;;11.70;2.87;;;7.20;1.00;;;;;;4498673;27;655029;-69
2024/03/17 10:15:20;;;;;;;10.87;3.17;;;6.90;1.00;;;;;;4490549;27;658219;-70
2024/03/17 10:18:19;;;;;;;8.50;2.70;;;7.10;1.00;;;;;;4491264;27;655248;-70
2024/03/17 10:21:07;;;;;;;7.27;2.20;;;7.70;1.00;;;;;;4469996;27;655039;-70
2024/03/17 10:24:07;;;;;;;7.67;2.20;;;7.70;1.00;;;;;;4479054;27;654482;-70
2024/03/17 10:26:55;;;;;;;8.40;2.43;;;7.90;1.00;;;;;;4469343;27;654269;-71
2024/03/17 10:29:46;;;;;;;8.47;2.43;;;8.10;1.00;;;;;;4480958;27;654415;-71
2024/03/17 10:32:34;;;;;;;5.00;1.83;;;8.40;1.00;;;;;;4476216;27;654504;-70
2024/03/17 10:35:38;;;;;;;3.07;1.47;;;8.40;1.00;;;;;;4490626;27;654928;-70
2024/03/17 10:38:25;;;;;;;6.87;2.27;;;8.70;1.00;;;;;;4473914;27;654676;-70
2024/03/17 10:41:12;;;;;;;8.93;3.07;;;9.30;1.00;;;;;;4482308;27;654491;-70
2024/03/17 10:44:00;;;;;;;6.83;2.30;;;8.40;1.00;;;;;;4499412;27;655033;-70
2024/03/17 10:46:47;;;;;;;8.50;2.33;;;7.70;1.00;;;;;;4498617;27;654640;-70
2024/03/17 10:49:35;;;;;;;8.97;2.10;;;7.30;1.00;;;;;;4473092;27;655746;-70
2024/03/17 10:52:25;;;;;;;11.47;2.60;;;7.00;1.00;;;;;;4477202;27;654681;-71
2024/03/17 10:55:15;;;;;;;8.07;2.70;;;6.70;1.00;;;;;;4474528;27;655480;-70
2024/03/17 10:58:02;;;;;;;9.53;2.57;;;6.20;1.00;;;;;;4479838;27;654549;-71
2024/03/17 11:00:49;;;;;;;4.97;2.17;;;6.00;1.00;;;;;;4470536;27;654995;-70
2024/03/17 11:03:36;;;;;;;8.03;1.60;;;6.30;1.00;;;;;;4500809;27;654377;-70
2024/03/17 11:06:26;;;;;;;7.53;2.70;;;7.00;1.00;;;;;;4475697;27;654587;-71
2024/03/17 11:09:15;;;;;;;8.43;2.73;;;7.50;1.00;;;;;;4472172;27;654336;-71
2024/03/17 11:12:02;;;;;;;11.33;2.70;;;7.30;1.00;;;;;;4488862;27;654523;-70
2024/03/17 11:14:50;;;;;;;7.40;2.13;;;6.50;1.00;;;;;;4491076;27;654805;-70
2024/03/17 11:17:37;;;;;;;9.73;2.90;;;6.50;1.00;;;;;;4497230;27;654632;-71
2024/03/17 11:20:24;;;;;;;5.00;1.57;;;6.70;1.00;;;;;;4479781;27;654160;-70
2024/03/17 11:23:15;;;;;;;14.97;2.90;;;6.90;99.90;;;;;;4499685;27;653954;-70
2024/03/17 11:26:03;;;;;;;6.37;2.20;;;7.40;1.00;;;;;;4471035;27;657236;-70
2024/03/17 11:28:52;;;;;;;5.10;2.27;;;7.60;1.00;;;;;;4468502;27;656013;-71
2024/03/17 11:31:44;;;;;;;9.17;2.60;;;8.30;1.00;;;;;;4481255;27;655017;-71
2024/03/17 11:34:39;;;;;;;9.40;2.20;;;8.40;80.20;;;;;;4471548;27;654502;-71
2024/03/17 11:37:42;;;;;;;11.50;3.23;;;8.80;1.00;;;;;;4463186;27;655713;-71
2024/03/17 11:40:30;;;;;;;8.53;2.33;;;8.70;1.00;;;;;;4438320;27;656057;-71
2024/03/17 11:43:18;;;;;;;7.23;2.60;;;8.90;1.00;;;;;;4498063;27;653988;-69
2024/03/17 11:46:04;;;;;;;4.10;1.83;;;8.20;1.00;;;;;;4466874;27;655409;-70
2024/03/17 11:48:51;;;;;;;4.80;1.97;;;8.90;1.00;;;;;;4490518;27;654671;-70
2024/03/17 11:51:37;;;;;;;7.43;1.43;;;9.30;1.00;;;;;;4474255;27;655305;-71
2024/03/17 11:54:27;;;;;;;10.47;1.63;;;9.70;1.00;;;;;;4493578;27;654710;-71
2024/03/17 11:57:22;;;;;;;4.77;1.80;;;8.90;1.00;;;;;;4464403;27;656946;-69
2024/03/17 12:00:19;;;;;;;3.13;2.03;;;8.70;1.00;;;;;;4440211;27;654414;-70
2024/03/17 12:03:09;;;;;;;5.77;2.00;;;9.20;1.00;;;;;;4462868;27;654960;-70
2024/03/17 12:05:55;;;;;;;6.97;2.47;;;9.40;1.00;;;;;;4469762;27;656368;-70
2024/03/17 12:08:42;;;;;;;5.97;1.77;;;9.50;1.00;;;;;;4485945;27;655185;-71
2024/03/17 12:11:29;;;;;;;3.53;1.90;;;9.50;1.00;;;;;;4490466;27;655432;-70
2024/03/17 12:14:20;;;;;;;7.60;1.77;;;9.20;1.00;;;;;;4492264;27;655263;-70
2024/03/17 12:17:08;;;;;;;11.10;2.17;;;8.60;1.00;;;;;;4449905;27;654710;-70
2024/03/17 12:19:55;;;;;;;7.43;2.10;;;8.70;1.00;;;;;;4472889;27;656577;-70
2024/03/17 12:22:42;;;;;;;5.90;1.77;;;8.80;1.00;;;;;;4471801;27;654385;-70
2024/03/17 12:25:29;;;;;;;3.57;1.60;;;8.80;1.00;;;;;;4491017;27;655511;-70
2024/03/17 12:28:17;;;;;;;8.43;2.20;;;8.40;1.00;;;;;;4486994;27;654354;-74
2024/03/17 12:31:06;;;;;;;8.63;2.17;;;8.90;1.00;;;;;;4467426;27;656141;-69
2024/03/17 12:33:52;;;;;;;3.07;1.53;;;8.40;1.00;;;;;;4470758;27;654472;-70
2024/03/17 12:36:39;;;;;;;6.33;1.50;;;8.00;1.00;;;;;;4498893;27;654480;-70
2024/03/17 12:39:27;;;;;;;5.23;1.80;;;7.90;1.00;;;;;;4494461;27;654380;-70
2024/03/17 12:42:14;;;;;;;4.33;1.33;;;7.50;1.00;;;;;;4474093;27;654821;-69
2024/03/17 12:45:03;;;;;;;5.67;1.80;;;7.80;1.00;;;;;;4495450;27;654726;-69
2024/03/17 12:47:51;;;;;;;6.20;1.90;;;7.50;1.00;;;;;;4461982;27;654871;-70
2024/03/17 12:50:41;;;;;;;8.53;2.30;;;7.70;1.00;;;;;;4473499;27;655189;-70
2024/03/17 12:53:27;;;;;;;9.83;2.33;;;7.80;1.00;;;;;;4472034;27;654399;-70
2024/03/17 13:02:27;;;;;;;4.23;1.53;;;7.90;1.00;;;;;;4477401;27;654537;-70
2024/03/17 13:05:17;;;;;;;8.90;2.30;;;7.80;1.00;;;;;;4472948;27;655001;-70
2024/03/17 13:08:05;;;;;;;10.80;2.20;;;7.80;1.00;;;;;;4477417;27;655037;-70
2024/03/17 13:10:52;;;;;;;7.60;1.80;;;8.20;1.00;;;;;;4464838;27;655793;-70
2024/03/17 13:13:39;;;;;;;6.40;2.10;;;9.40;1.00;;;;;;4493812;27;653958;-70
2024/03/17 13:16:27;;;;;;;4.83;1.77;;;10.00;1.00;;;;;;4492047;27;654711;-71
2024/03/17 13:19:14;;;;;;;6.23;2.70;;;10.50;1.00;;;;;;4465350;27;656225;-70
2024/03/17 13:22:03;;;;;;;4.83;1.40;;;10.10;1.00;;;;;;4493631;27;655956;-70
2024/03/17 13:24:51;;;;;;;4.77;1.27;;;9.60;1.00;;;;;;4467749;27;656408;-70
2024/03/17 13:27:38;;;;;;;6.30;1.57;;;9.40;1.00;;;;;;4471941;27;654388;-69
2024/03/17 13:30:28;;;;;;;5.13;2.13;;;9.20;1.00;;;;;;4492192;27;655265;-70
2024/03/17 13:33:15;;;;;;;5.33;1.97;;;10.20;1.00;;;;;;4467853;27;655082;-68
2024/03/17 13:36:03;;;;;;;3.60;1.60;;;9.90;1.00;;;;;;4468807;27;655495;-70
2024/03/17 13:38:55;;;;;;;5.83;1.87;;;9.80;1.00;;;;;;4488494;27;655773;-69
2024/03/17 13:41:42;;;;;;;4.33;1.60;;;9.10;1.00;;;;;;4457741;27;655565;-69
2024/03/17 13:44:30;;;;;;;6.67;1.87;;;8.80;1.00;;;;;;4488615;27;654844;-69
2024/03/17 13:47:18;;;;;;;3.87;1.30;;;8.10;1.00;;;;;;4465051;27;655301;-70
2024/03/17 13:50:10;;;;;;;3.17;0.83;;;7.80;1.00;;;;;;4490007;27;654644;-69
2024/03/17 13:52:58;;;;;;;6.10;1.87;;;8.00;1.00;;;;;;4443535;27;654468;-70
2024/03/17 13:55:47;;;;;;;5.33;1.90;;;8.10;1.00;;;;;;4491104;27;655360;-69
2024/03/17 13:58:34;;;;;;;6.93;2.10;;;8.10;1.00;;;;;;4467460;27;655819;-69
2024/03/17 14:01:21;;;;;;;6.27;2.00;;;8.30;1.00;;;;;;4487221;27;655726;-69
2024/03/17 14:04:10;;;;;;;5.50;1.83;;;8.60;1.00;;;;;;4471742;27;654588;-69
2024/03/17 14:06:57;;;;;;;11.93;2.10;;;7.90;1.00;;;;;;4469766;27;654481;-70
2024/03/17 14:09:45;;;;;;;8.73;2.10;;;9.10;1.00;;;;;;4484563;27;656192;-70
2024/03/17 14:12:34;;;;;;;6.70;1.50;;;9.90;1.00;;;;;;4486794;27;655365;-69
2024/03/17 14:15:21;;;;;;;6.23;1.87;;;9.80;1.00;;;;;;4497106;27;654774;-69
2024/03/17 14:18:08;;;;;;;6.30;1.63;;;8.90;1.00;;;;;;4475067;27;654878;-69
2024/03/17 14:20:55;;;;;;;5.77;1.70;;;8.50;1.00;;;;;;4482111;27;655367;-69
2024/03/17 14:23:44;;;;;;;5.00;1.90;;;8.50;1.00;;;;;;4485699;27;654469;-70
2024/03/17 14:26:32;;;;;;;7.47;2.20;;;8.00;1.00;;;;;;4493137;27;654999;-69
2024/03/17 14:29:20;;;;;;;4.17;1.67;;;8.30;1.00;;;;;;4481867;27;654959;-69
2024/03/17 14:32:07;;;;;;;8.83;2.27;;;8.00;1.00;;;;;;4483630;27;654571;-69
2024/03/17 14:34:55;;;;;;;8.87;2.40;;;8.00;1.00;;;;;;4505061;27;654722;-69
2024/03/17 14:37:43;;;;;;;6.33;2.03;;;9.00;1.00;;;;;;4500660;27;654708;-69
2024/03/17 14:40:30;;;;;;;8.43;1.85;;;8.60;1.00;;;;;;4458578;27;655005;-68
2024/03/17 14:43:17;;;;;;;4.13;1.53;;;9.00;1.00;;;;;;4485835;27;654513;-70
2024/03/17 14:46:10;;;;;;;7.83;2.23;;;9.40;1.00;;;;;;4498868;27;654626;-70